Time;durP1;ratioP1;P1;durP2;ratioP2;P2;SDS_P1;SDS_P2;PMS_P1;PMS_P2;Temp;Humidity;BMP_temperature;BMP_pressure;BME280_temperature;BME280_humidity;BME280_pressure;Samples;Min_cycle;Max_cycle;Signal;HPM_P1;HPM_P2
2023/03/02 00:02:20;;;;;;;8.32;4.15;;;1.40;99.90;;;;;;5030173;28;20107;-47
2023/03/02 00:04:52;;;;;;;6.53;3.70;;;1.40;99.90;;;;;;5030321;28;20022;-54
2023/03/02 00:07:30;;;;;;;6.07;3.42;;;1.40;99.90;;;;;;5030608;28;20052;-44
2023/03/02 00:09:56;;;;;;;7.55;3.90;;;1.40;99.90;;;;;;5036283;28;20021;-44
2023/03/02 00:12:23;;;;;;;5.88;3.72;;;1.40;99.90;;;;;;5036917;28;20439;-43
2023/03/02 00:14:48;;;;;;;8.52;3.97;;;1.30;99.90;;;;;;5037038;28;20017;-44
2023/03/02 00:17:14;;;;;;;7.60;3.25;;;1.30;99.90;;;;;;5035804;28;20034;-49
2023/03/02 00:19:40;;;;;;;6.30;3.58;;;1.30;99.90;;;;;;5031325;28;20435;-45
2023/03/02 00:22:06;;;;;;;6.97;3.10;;;1.20;99.90;;;;;;5036902;28;20035;-52
2023/03/02 00:24:32;;;;;;;6.45;3.38;;;1.20;99.90;;;;;;5040938;28;20021;-36
2023/03/02 00:26:57;;;;;;;5.78;3.28;;;1.20;99.90;;;;;;5049913;28;20029;-37
2023/03/02 00:29:23;;;;;;;5.45;3.38;;;1.20;99.90;;;;;;5053211;28;20064;-37
2023/03/02 00:31:48;;;;;;;7.68;3.83;;;1.20;99.90;;;;;;5056980;28;20480;-39
2023/03/02 00:34:15;;;;;;;7.25;3.75;;;1.20;99.90;;;;;;5056683;28;20078;-36
2023/03/02 00:36:41;;;;;;;8.85;4.03;;;1.20;99.90;;;;;;5056986;28;20064;-46
2023/03/02 00:39:07;;;;;;;6.85;3.85;;;1.20;99.90;;;;;;5054198;28;20492;-39
2023/03/02 00:41:32;;;;;;;9.68;3.95;;;1.20;99.90;;;;;;5055142;28;20025;-46
2023/03/02 00:43:58;;;;;;;7.75;3.75;;;1.20;99.90;;;;;;5056782;28;20137;-46
2023/03/02 00:46:24;;;;;;;8.15;4.22;;;1.20;99.90;;;;;;5056957;28;20017;-37
2023/03/02 00:48:50;;;;;;;10.43;4.55;;;1.20;99.90;;;;;;5056755;28;20100;-42
2023/03/02 00:51:16;;;;;;;8.57;4.40;;;1.20;99.90;;;;;;5056515;28;20037;-54
2023/03/02 00:53:43;;;;;;;6.80;4.30;;;1.20;99.90;;;;;;5056798;28;20027;-38
2023/03/02 00:56:09;;;;;;;8.35;4.55;;;1.20;99.90;;;;;;5056725;28;20769;-37
2023/03/02 00:58:35;;;;;;;8.00;4.65;;;1.20;99.90;;;;;;5056469;28;20081;-43
2023/03/02 01:01:11;;;;;;;12.45;5.95;;;1.20;99.90;;;;;;5056733;28;20134;-52
2023/03/02 01:03:37;;;;;;;7.57;4.43;;;1.40;99.90;;;;;;5056593;28;20480;-40
2023/03/02 01:06:04;;;;;;;16.17;5.22;;;1.30;99.90;;;;;;5056428;28;20028;-49
2023/03/02 01:08:30;;;;;;;10.80;5.40;;;1.40;99.90;;;;;;5056570;28;20048;-45
2023/03/02 01:10:55;;;;;;;8.85;4.53;;;1.40;99.90;;;;;;5047371;28;20037;-42
2023/03/02 01:13:21;;;;;;;8.93;4.57;;;1.30;99.90;;;;;;5056483;28;20063;-50
2023/03/02 01:15:47;;;;;;;10.15;4.72;;;1.30;99.90;;;;;;5055340;28;20027;-43
2023/03/02 01:18:13;;;;;;;12.90;5.10;;;1.20;99.90;;;;;;5056623;28;20107;-36
2023/03/02 01:20:39;;;;;;;13.65;4.68;;;1.10;99.90;;;;;;5039435;28;20021;-50
2023/03/02 01:23:04;;;;;;;7.30;4.60;;;1.00;99.90;;;;;;5053462;28;20487;-40
2023/03/02 01:25:30;;;;;;;8.23;4.40;;;1.00;99.90;;;;;;5053477;28;20029;-45
2023/03/02 01:27:56;;;;;;;8.77;5.07;;;0.90;99.90;;;;;;5053307;28;20036;-41
2023/03/02 01:30:22;;;;;;;8.57;4.75;;;0.80;99.90;;;;;;5053285;28;20062;-51
2023/03/02 01:32:48;;;;;;;9.68;5.15;;;0.80;99.90;;;;;;5039133;28;20096;-47
2023/03/02 01:35:13;;;;;;;8.35;5.20;;;0.80;99.90;;;;;;5052995;28;20033;-36
2023/03/02 01:37:39;;;;;;;11.73;6.03;;;0.70;99.90;;;;;;5052978;28;20033;-39
2023/03/02 01:40:05;;;;;;;9.82;4.95;;;0.70;99.90;;;;;;5046346;28;20032;-41
2023/03/02 01:42:39;;;;;;;8.07;4.90;;;0.60;99.90;;;;;;5049367;28;20087;-51
2023/03/02 01:45:25;;;;;;;9.90;5.47;;;0.60;99.90;;;;;;5042823;28;20021;-47
2023/03/02 01:47:51;;;;;;;9.32;4.97;;;0.60;99.90;;;;;;5052385;28;20634;-36
2023/03/02 01:50:25;;;;;;;10.35;5.70;;;0.60;99.90;;;;;;5053015;28;20107;-39
2023/03/02 01:52:53;;;;;;;9.20;5.60;;;0.60;99.90;;;;;;5045944;28;20071;-43
2023/03/02 01:55:23;;;;;;;12.50;6.03;;;0.60;99.90;;;;;;5046488;28;20337;-38
2023/03/02 01:57:51;;;;;;;13.85;5.68;;;0.60;99.90;;;;;;5050190;28;20041;-37
2023/03/02 02:00:21;;;;;;;10.77;5.88;;;0.60;99.90;;;;;;5052243;28;20036;-41
2023/03/02 02:02:48;;;;;;;11.98;6.25;;;0.60;99.90;;;;;;5052109;28;20063;-43
2023/03/02 02:05:24;;;;;;;12.05;6.00;;;0.60;99.90;;;;;;5052104;28;20068;-48
2023/03/02 02:07:49;;;;;;;11.52;5.45;;;0.50;99.90;;;;;;5052320;28;20028;-40
2023/03/02 02:10:15;;;;;;;10.75;5.63;;;0.50;99.90;;;;;;5052377;28;20036;-40
2023/03/02 02:12:41;;;;;;;10.65;6.13;;;0.40;99.90;;;;;;5051136;28;20132;-43
2023/03/02 02:15:07;;;;;;;12.40;6.13;;;0.40;99.90;;;;;;5052349;28;20053;-44
2023/03/02 02:17:33;;;;;;;11.40;6.25;;;0.30;99.90;;;;;;5052442;28;20064;-51
2023/03/02 02:20:27;;;;;;;12.60;6.38;;;0.30;99.90;;;;;;5051829;28;20452;-46
2023/03/02 02:23:04;;;;;;;10.80;6.30;;;0.40;99.90;;;;;;5045808;28;20017;-41
2023/03/02 02:25:43;;;;;;;11.30;6.57;;;0.30;99.90;;;;;;5052197;28;20037;-55
2023/03/02 02:28:18;;;;;;;12.90;6.63;;;0.20;99.90;;;;;;5052101;28;20036;-51
2023/03/02 02:30:46;;;;;;;11.20;5.93;;;0.20;99.90;;;;;;5052293;28;20032;-49
2023/03/02 02:33:18;;;;;;;14.18;7.05;;;0.10;99.90;;;;;;5050811;28;20488;-43
2023/03/02 02:35:46;;;;;;;11.57;6.75;;;0.00;99.90;;;;;;5051758;28;20485;-41
2023/03/02 02:38:16;;;;;;;13.63;6.55;;;0.00;99.90;;;;;;5050358;28;20051;-47
2023/03/02 02:40:50;;;;;;;15.30;7.70;;;0.00;99.90;;;;;;5051913;28;20021;-46
2023/03/02 02:43:18;;;;;;;14.55;8.18;;;0.00;99.90;;;;;;5051792;28;20153;-41
2023/03/02 02:45:45;;;;;;;14.68;8.20;;;0.00;99.90;;;;;;5043101;28;20128;-39
2023/03/02 02:48:16;;;;;;;15.07;7.97;;;0.00;99.90;;;;;;5051607;28;20028;-38
2023/03/02 02:50:43;;;;;;;16.67;8.45;;;0.10;99.90;;;;;;5051323;28;20108;-38
2023/03/02 02:53:19;;;;;;;17.38;9.07;;;0.10;99.90;;;;;;5045892;28;20099;-43
2023/03/02 02:55:48;;;;;;;17.48;9.13;;;0.00;99.90;;;;;;5049049;28;20083;-37
2023/03/02 02:58:36;;;;;;;16.80;9.20;;;0.10;99.90;;;;;;5051373;28;20037;-40
2023/03/02 03:01:02;;;;;;;18.08;9.35;;;0.00;99.90;;;;;;5051220;28;20112;-44
2023/03/02 03:03:33;;;;;;;19.00;10.05;;;0.10;99.90;;;;;;5051165;28;20112;-44
2023/03/02 03:06:04;;;;;;;25.15;10.90;;;0.10;99.90;;;;;;5051271;28;20063;-43
2023/03/02 03:08:45;;;;;;;20.73;11.10;;;0.20;99.90;;;;;;5051233;28;20063;-39
2023/03/02 03:11:13;;;;;;;21.35;11.07;;;0.20;99.90;;;;;;5051147;28;20055;-36
2023/03/02 03:13:42;;;;;;;21.77;11.23;;;0.20;99.90;;;;;;5051004;28;20103;-36
2023/03/02 03:16:12;;;;;;;24.87;12.87;;;0.20;99.90;;;;;;5050026;28;20403;-37
2023/03/02 03:18:41;;;;;;;23.83;11.25;;;0.30;99.90;;;;;;5051009;28;20107;-36
2023/03/02 03:21:07;;;;;;;21.45;11.38;;;0.30;99.90;;;;;;5050847;28;20344;-36
2023/03/02 03:23:36;;;;;;;26.05;11.82;;;0.30;99.90;;;;;;5037404;28;20029;-43
2023/03/02 03:26:05;;;;;;;27.20;14.15;;;0.30;99.90;;;;;;5036382;28;20021;-42
2023/03/02 03:28:32;;;;;;;28.97;12.87;;;0.30;99.90;;;;;;5029981;28;20504;-42
2023/03/02 03:30:58;;;;;;;23.55;12.38;;;0.30;99.90;;;;;;5029838;28;20060;-39
2023/03/02 03:33:24;;;;;;;26.75;13.30;;;0.30;99.90;;;;;;5021278;28;20493;-39
2023/03/02 03:35:50;;;;;;;25.75;13.43;;;0.30;99.90;;;;;;5029665;28;20094;-37
2023/03/02 03:38:16;;;;;;;27.58;12.75;;;0.40;99.90;;;;;;5030536;28;20041;-44
2023/03/02 03:40:41;;;;;;;23.05;12.73;;;0.30;99.90;;;;;;5030699;28;20025;-41
2023/03/02 03:43:08;;;;;;;23.92;12.70;;;0.30;99.90;;;;;;5030385;28;20032;-48
2023/03/02 03:45:34;;;;;;;25.10;12.15;;;0.30;99.90;;;;;;5030658;28;20034;-42
2023/03/02 03:47:59;;;;;;;25.73;12.98;;;0.20;99.90;;;;;;5030370;28;20090;-43
2023/03/02 03:50:25;;;;;;;22.65;12.00;;;0.10;99.90;;;;;;5030497;28;20026;-39
2023/03/02 03:52:51;;;;;;;23.38;12.38;;;0.10;99.90;;;;;;5030044;28;20701;-44
2023/03/02 03:55:18;;;;;;;21.35;11.40;;;0.00;99.90;;;;;;5047301;28;20038;-41
2023/03/02 03:57:43;;;;;;;22.70;11.70;;;0.00;99.90;;;;;;5043635;28;20036;-46
2023/03/02 04:00:13;;;;;;;22.10;12.38;;;0.00;99.90;;;;;;5050389;28;20021;-46
2023/03/02 04:02:40;;;;;;;21.00;12.32;;;0.00;99.90;;;;;;5038944;28;20073;-38
2023/03/02 04:05:07;;;;;;;21.58;12.07;;;0.00;99.90;;;;;;5048454;28;20502;-42
2023/03/02 04:07:34;;;;;;;22.20;12.60;;;0.00;99.90;;;;;;5050174;28;20408;-54
2023/03/02 04:10:03;;;;;;;25.63;12.00;;;-0.10;99.90;;;;;;5050389;28;20033;-44
2023/03/02 04:12:30;;;;;;;22.40;12.77;;;-0.10;99.90;;;;;;5050188;28;20484;-43
2023/03/02 04:14:56;;;;;;;29.30;14.38;;;-0.10;99.90;;;;;;5050055;28;20028;-36
2023/03/02 04:17:22;;;;;;;27.85;14.88;;;-0.10;99.90;;;;;;5050104;28;20037;-52
2023/03/02 04:19:47;;;;;;;22.45;13.10;;;-0.20;99.90;;;;;;5050241;28;20112;-46
2023/03/02 04:22:14;;;;;;;25.58;13.18;;;-0.20;99.90;;;;;;5047616;28;20064;-48
2023/03/02 04:24:40;;;;;;;26.88;14.00;;;-0.20;99.90;;;;;;5035702;28;20071;-48
2023/03/02 04:27:05;;;;;;;27.33;13.68;;;-0.20;99.90;;;;;;5047283;28;20029;-52
2023/03/02 04:29:31;;;;;;;26.42;13.85;;;-0.20;99.90;;;;;;5050123;28;20057;-39
2023/03/02 04:31:57;;;;;;;26.40;14.02;;;-0.20;99.90;;;;;;5050006;28;20070;-44
2023/03/02 04:34:24;;;;;;;27.75;13.40;;;-0.30;99.90;;;;;;5050095;28;20111;-51
2023/03/02 04:36:50;;;;;;;25.67;13.25;;;-0.30;99.90;;;;;;5049885;28;20037;-48
2023/03/02 04:39:16;;;;;;;25.42;13.75;;;-0.40;99.90;;;;;;5049751;28;20095;-41
2023/03/02 04:41:43;;;;;;;28.25;13.23;;;-0.50;99.90;;;;;;5048642;28;20395;-51
2023/03/02 04:44:09;;;;;;;27.85;14.23;;;-0.50;99.90;;;;;;5049734;28;20025;-45
2023/03/02 04:46:34;;;;;;;25.92;13.25;;;-0.50;99.90;;;;;;5050181;28;20021;-37
2023/03/02 04:49:00;;;;;;;25.73;12.88;;;-0.60;99.90;;;;;;5049761;28;20420;-51
2023/03/02 04:51:28;;;;;;;25.05;13.95;;;-0.60;99.90;;;;;;5049972;28;20406;-48
2023/03/02 04:53:57;;;;;;;27.27;13.70;;;-0.60;99.90;;;;;;5042114;28;20040;-39
2023/03/02 04:56:23;;;;;;;23.88;13.57;;;-0.60;99.90;;;;;;5048384;28;20044;-49
2023/03/02 04:58:49;;;;;;;25.80;14.57;;;-0.60;99.90;;;;;;5053699;28;20035;-44
2023/03/02 05:01:16;;;;;;;27.13;13.55;;;-0.60;99.90;;;;;;5051913;28;20040;-49
2023/03/02 05:03:42;;;;;;;25.35;13.50;;;-0.70;99.90;;;;;;5053568;28;20028;-47
2023/03/02 05:06:08;;;;;;;26.60;12.93;;;-0.70;99.90;;;;;;5053386;28;20056;-39
2023/03/02 05:08:34;;;;;;;28.42;14.02;;;-0.70;99.90;;;;;;5053371;28;20032;-48
2023/03/02 05:11:00;;;;;;;24.55;12.88;;;-0.70;99.90;;;;;;5053444;28;20028;-45
2023/03/02 05:13:26;;;;;;;27.88;13.82;;;-0.80;99.90;;;;;;5053207;28;20782;-58
2023/03/02 05:15:52;;;;;;;30.33;14.95;;;-0.80;99.90;;;;;;5053381;28;20053;-48
2023/03/02 05:18:19;;;;;;;30.30;15.50;;;-0.80;99.90;;;;;;5053031;28;20082;-49
2023/03/02 05:20:45;;;;;;;28.40;14.40;;;-0.80;99.90;;;;;;5053430;28;20036;-46
2023/03/02 05:23:22;;;;;;;29.40;15.80;;;-0.80;99.90;;;;;;5040737;28;20042;-47
2023/03/02 05:25:49;;;;;;;28.15;15.20;;;-0.80;99.90;;;;;;5026239;28;20365;-45
2023/03/02 05:28:15;;;;;;;31.75;15.93;;;-0.80;99.90;;;;;;5052971;28;20025;-43
2023/03/02 05:30:41;;;;;;;36.92;16.60;;;-0.80;99.90;;;;;;5052834;28;20054;-46
2023/03/02 05:33:07;;;;;;;30.70;15.98;;;-0.80;99.90;;;;;;5052842;28;20572;-39
2023/03/02 05:35:33;;;;;;;31.63;16.77;;;-0.80;99.90;;;;;;5052757;28;20047;-59
2023/03/02 05:37:58;;;;;;;31.52;16.52;;;-0.80;99.90;;;;;;5052784;28;20037;-51
2023/03/02 05:40:24;;;;;;;33.55;16.23;;;-0.80;99.90;;;;;;5052897;28;20025;-53
2023/03/02 05:42:50;;;;;;;36.38;17.33;;;-0.90;99.90;;;;;;5052922;28;20033;-50
2023/03/02 05:45:20;;;;;;;33.05;16.27;;;-0.90;99.90;;;;;;5052620;28;20033;-49
2023/03/02 05:47:46;;;;;;;39.83;17.67;;;-0.80;99.90;;;;;;5052807;28;20040;-51
2023/03/02 05:50:12;;;;;;;39.88;18.17;;;-0.80;99.90;;;;;;5052458;28;20419;-39
2023/03/02 05:52:38;;;;;;;44.70;20.58;;;-0.80;99.90;;;;;;5050963;28;20468;-50
2023/03/02 05:55:04;;;;;;;38.28;19.20;;;-0.70;99.90;;;;;;5052264;28;20055;-51
2023/03/02 05:57:30;;;;;;;37.00;17.88;;;-0.70;99.90;;;;;;5052603;28;20033;-52
2023/03/02 05:59:55;;;;;;;37.55;19.65;;;-0.70;99.90;;;;;;5052203;28;20012;-53
2023/03/02 06:02:21;;;;;;;38.90;18.38;;;-0.70;99.90;;;;;;5052346;28;20163;-40
2023/03/02 06:04:46;;;;;;;39.83;18.90;;;-0.70;99.90;;;;;;5052455;28;20502;-48
2023/03/02 06:07:12;;;;;;;34.00;18.95;;;-0.70;99.90;;;;;;5052199;28;20115;-49
2023/03/02 06:09:39;;;;;;;37.75;19.50;;;-0.70;99.90;;;;;;5052186;28;20028;-43
2023/03/02 06:12:06;;;;;;;38.95;19.42;;;-0.70;99.90;;;;;;5052164;28;20021;-42
2023/03/02 06:14:31;;;;;;;41.35;18.88;;;-0.70;99.90;;;;;;5052167;28;20130;-44
2023/03/02 06:16:57;;;;;;;44.97;21.27;;;-0.70;99.90;;;;;;5051921;28;20061;-45
2023/03/02 06:19:22;;;;;;;46.35;21.50;;;-0.70;99.90;;;;;;5052228;28;20053;-40
2023/03/02 06:21:48;;;;;;;47.00;20.83;;;-0.60;99.90;;;;;;5050272;28;20503;-51
2023/03/02 06:24:14;;;;;;;47.92;21.83;;;-0.50;99.90;;;;;;5052179;28;20025;-37
2023/03/02 06:26:39;;;;;;;47.85;23.17;;;-0.40;99.90;;;;;;5052057;28;20064;-41
2023/03/02 06:29:06;;;;;;;45.97;23.13;;;-0.40;99.90;;;;;;5051852;28;20059;-50
2023/03/02 06:31:32;;;;;;;47.05;22.88;;;-0.20;99.90;;;;;;5052105;28;20036;-55
2023/03/02 06:33:58;;;;;;;47.33;22.50;;;-0.20;99.90;;;;;;5051981;28;20373;-46
2023/03/02 06:36:24;;;;;;;43.05;21.83;;;-0.20;99.90;;;;;;5051823;28;20040;-53
2023/03/02 06:38:49;;;;;;;47.92;22.20;;;-0.30;99.90;;;;;;5051595;28;20098;-38
2023/03/02 06:41:15;;;;;;;46.97;22.15;;;-0.30;99.90;;;;;;5051556;28;20025;-38
2023/03/02 06:43:41;;;;;;;47.83;23.17;;;-0.20;99.90;;;;;;5051592;28;20102;-36
2023/03/02 06:46:06;;;;;;;47.17;23.50;;;-0.30;99.90;;;;;;5051588;28;20032;-47
2023/03/02 06:48:32;;;;;;;52.90;23.63;;;-0.10;99.90;;;;;;5051734;28;20493;-36
2023/03/02 06:50:58;;;;;;;56.72;26.38;;;-0.10;99.90;;;;;;5051428;28;20040;-40
2023/03/02 06:53:24;;;;;;;49.00;24.42;;;0.00;99.90;;;;;;5044859;28;20037;-41
2023/03/02 06:55:50;;;;;;;60.63;26.25;;;0.10;99.90;;;;;;5051501;28;20055;-40
2023/03/02 06:58:16;;;;;;;53.05;25.52;;;0.20;99.90;;;;;;5051122;28;20087;-39
2023/03/02 07:00:41;;;;;;;56.35;25.70;;;0.30;99.90;;;;;;5051527;28;20032;-41
2023/03/02 07:03:07;;;;;;;60.55;28.00;;;0.40;99.90;;;;;;5051016;28;20045;-45
2023/03/02 07:05:33;;;;;;;56.65;26.27;;;0.50;99.90;;;;;;5051340;28;20032;-40
2023/03/02 07:07:59;;;;;;;62.17;26.70;;;0.50;99.90;;;;;;5051290;28;20270;-39
2023/03/02 07:10:24;;;;;;;57.60;26.25;;;0.60;99.90;;;;;;5051030;28;20021;-49
2023/03/02 07:12:51;;;;;;;63.75;27.63;;;0.60;99.90;;;;;;5051079;28;20024;-44
2023/03/02 07:15:17;;;;;;;63.72;27.02;;;0.70;99.90;;;;;;5051179;28;20021;-42
2023/03/02 07:17:44;;;;;;;55.50;27.00;;;0.80;99.90;;;;;;5050542;28;20029;-43
2023/03/02 07:20:11;;;;;;;68.05;29.25;;;0.80;99.90;;;;;;5050942;28;20029;-41
2023/03/02 07:22:37;;;;;;;62.92;27.50;;;1.00;99.90;;;;;;5047053;28;20082;-41
2023/03/02 07:25:03;;;;;;;59.38;26.88;;;1.00;99.90;;;;;;5049716;28;20111;-44
2023/03/02 07:27:29;;;;;;;56.55;27.33;;;1.10;99.90;;;;;;5050848;28;20122;-51
2023/03/02 07:29:54;;;;;;;58.80;28.10;;;1.20;99.90;;;;;;5050921;28;20136;-41
2023/03/02 07:32:20;;;;;;;55.60;27.77;;;1.40;99.90;;;;;;5050750;28;20021;-43
2023/03/02 07:34:46;;;;;;;52.75;27.10;;;1.40;99.90;;;;;;5050816;28;20388;-43
2023/03/02 07:37:11;;;;;;;60.40;27.83;;;1.50;99.90;;;;;;5050641;28;20036;-47
2023/03/02 07:39:37;;;;;;;59.00;26.77;;;1.60;99.90;;;;;;5050763;28;20055;-50
2023/03/02 07:42:03;;;;;;;53.67;25.98;;;1.70;99.90;;;;;;5050689;28;20388;-44
2023/03/02 07:44:30;;;;;;;51.55;25.75;;;1.70;99.90;;;;;;5050782;28;20079;-37
2023/03/02 07:46:56;;;;;;;54.10;26.63;;;1.80;99.90;;;;;;5047048;28;20024;-39
2023/03/02 07:49:21;;;;;;;50.25;25.92;;;1.90;99.90;;;;;;5031411;28;20021;-37
2023/03/02 07:51:47;;;;;;;48.55;24.55;;;2.10;99.90;;;;;;5030007;28;20052;-46
2023/03/02 07:54:13;;;;;;;47.97;24.48;;;2.20;99.90;;;;;;5043144;28;20111;-45
2023/03/02 07:56:38;;;;;;;45.83;23.55;;;2.20;99.90;;;;;;5040967;28;20396;-43
2023/03/02 07:59:04;;;;;;;44.00;24.00;;;2.30;99.90;;;;;;5030900;28;20029;-53
2023/03/02 08:01:29;;;;;;;42.63;22.45;;;2.40;99.90;;;;;;5030103;28;20053;-46
2023/03/02 08:03:55;;;;;;;45.63;24.00;;;2.60;99.90;;;;;;5030320;28;20029;-48
2023/03/02 08:06:21;;;;;;;45.97;23.40;;;2.70;99.90;;;;;;5029769;28;20104;-49
2023/03/02 08:08:46;;;;;;;38.40;22.35;;;2.80;99.90;;;;;;5030046;28;20030;-44
2023/03/02 08:11:15;;;;;;;44.33;22.90;;;3.00;99.90;;;;;;5030083;28;20029;-46
2023/03/02 08:13:41;;;;;;;40.42;23.00;;;3.00;99.90;;;;;;5030258;28;20037;-37
2023/03/02 08:16:09;;;;;;;38.15;20.65;;;3.10;99.90;;;;;;5029943;28;20108;-45
2023/03/02 08:18:35;;;;;;;40.67;21.05;;;3.20;99.90;;;;;;5039663;28;20060;-39
2023/03/02 08:21:02;;;;;;;40.72;22.05;;;3.40;99.90;;;;;;5039196;28;20065;-46
2023/03/02 08:23:27;;;;;;;36.50;21.13;;;3.50;99.90;;;;;;5050074;28;20116;-46
2023/03/02 08:25:53;;;;;;;39.67;21.08;;;3.50;99.90;;;;;;5035266;28;20100;-43
2023/03/02 08:28:20;;;;;;;40.90;21.38;;;3.60;99.90;;;;;;5035521;28;20388;-50
2023/03/02 08:30:59;;;;;;;36.53;20.17;;;3.90;99.90;;;;;;5051579;28;20095;-39
2023/03/02 08:33:26;;;;;;;42.92;20.52;;;3.90;99.90;;;;;;5053919;28;20120;-43
2023/03/02 08:35:59;;;;;;;36.20;20.48;;;4.00;99.90;;;;;;5047154;28;20032;-43
2023/03/02 08:38:26;;;;;;;32.90;20.50;;;4.20;99.90;;;;;;5033784;28;20436;-41
2023/03/02 08:40:52;;;;;;;31.33;19.17;;;4.70;99.90;;;;;;5032337;28;20384;-39
2023/03/02 08:43:19;;;;;;;30.75;18.08;;;5.70;99.90;;;;;;5033569;28;20026;-47
2023/03/02 08:45:49;;;;;;;26.60;16.30;;;7.00;99.90;;;;;;5033302;28;20104;-50
2023/03/02 08:48:15;;;;;;;27.00;16.70;;;8.50;99.90;;;;;;5034088;28;20346;-46
2023/03/02 08:50:40;;;;;;;24.17;15.70;;;9.50;99.90;;;;;;5033973;28;20502;-39
2023/03/02 08:53:06;;;;;;;26.02;15.85;;;10.70;99.90;;;;;;5037458;28;20023;-43
2023/03/02 08:55:35;;;;;;;24.33;16.55;;;11.20;98.20;;;;;;5053547;28;20113;-47
2023/03/02 08:58:01;;;;;;;23.60;16.75;;;12.00;94.80;;;;;;5045793;28;20072;-43
2023/03/02 09:00:26;;;;;;;26.65;17.75;;;12.20;90.50;;;;;;5043143;28;20025;-38
2023/03/02 09:02:52;;;;;;;27.30;17.35;;;11.60;90.30;;;;;;5041513;28;20132;-50
2023/03/02 09:05:18;;;;;;;24.98;17.42;;;11.20;91.10;;;;;;5033173;28;20100;-37
2023/03/02 09:07:43;;;;;;;26.38;18.20;;;11.50;90.80;;;;;;5033440;28;20029;-42
2023/03/02 09:10:09;;;;;;;23.02;17.80;;;11.90;89.10;;;;;;5033247;28;20417;-37
2023/03/02 09:12:35;;;;;;;26.08;18.48;;;11.90;86.30;;;;;;5033075;28;20430;-37
2023/03/02 09:15:00;;;;;;;26.77;17.80;;;12.70;87.00;;;;;;5033317;28;20481;-37
2023/03/02 09:17:26;;;;;;;24.75;17.58;;;13.40;83.10;;;;;;5033154;28;20034;-37
2023/03/02 09:19:52;;;;;;;25.05;17.88;;;13.70;79.60;;;;;;5033121;28;20040;-40
2023/03/02 09:22:17;;;;;;;25.63;18.27;;;14.00;79.10;;;;;;5033011;28;20025;-44
2023/03/02 09:24:43;;;;;;;23.42;17.90;;;14.70;76.80;;;;;;5033170;28;20092;-38
2023/03/02 09:27:09;;;;;;;24.70;18.75;;;14.70;76.90;;;;;;5033182;28;20153;-43
2023/03/02 09:29:34;;;;;;;25.88;18.17;;;15.20;73.30;;;;;;5032789;28;20424;-39
2023/03/02 09:32:00;;;;;;;25.83;18.85;;;16.10;71.80;;;;;;5032746;28;20033;-41
2023/03/02 09:34:25;;;;;;;24.80;18.23;;;15.90;69.50;;;;;;5032874;28;20028;-43
2023/03/02 09:36:51;;;;;;;25.65;19.05;;;16.40;68.60;;;;;;5051273;28;20369;-42
2023/03/02 09:39:18;;;;;;;23.60;19.10;;;16.40;67.30;;;;;;5052847;28;20037;-41
2023/03/02 09:42:04;;;;;;;25.60;20.13;;;16.90;65.70;;;;;;5051899;28;20025;-47
2023/03/02 09:45:02;;;;;;;24.33;18.77;;;17.40;64.30;;;;;;5052705;28;20093;-41
2023/03/02 09:47:28;;;;;;;26.85;20.27;;;16.30;66.50;;;;;;5052665;28;20501;-46
2023/03/02 09:50:17;;;;;;;25.40;19.15;;;15.40;64.90;;;;;;5052919;28;20024;-40
2023/03/02 09:53:13;;;;;;;24.58;18.13;;;16.10;67.80;;;;;;5052396;28;20021;-38
2023/03/02 09:55:39;;;;;;;24.00;18.58;;;16.10;66.40;;;;;;5052367;28;20134;-38
2023/03/02 09:58:16;;;;;;;23.42;18.38;;;15.70;65.60;;;;;;5044675;28;20473;-43
2023/03/02 10:00:43;;;;;;;25.30;18.25;;;16.10;66.30;;;;;;5029224;28;20041;-45
2023/03/02 10:03:18;;;;;;;25.98;18.98;;;15.10;68.00;;;;;;5016018;28;20049;-48
2023/03/02 10:05:53;;;;;;;31.52;19.70;;;15.30;68.00;;;;;;5031781;28;20101;-38
2023/03/02 10:08:27;;;;;;;25.85;19.17;;;15.10;70.50;;;;;;5032274;28;20037;-43
2023/03/02 10:11:09;;;;;;;27.95;19.90;;;15.70;69.30;;;;;;5032237;28;20112;-45
2023/03/02 10:13:48;;;;;;;29.20;19.40;;;16.70;68.30;;;;;;5032312;28;20017;-43
2023/03/02 10:16:22;;;;;;;26.25;19.83;;;17.10;65.30;;;;;;5027192;28;20057;-42
2023/03/02 10:19:06;;;;;;;26.17;18.98;;;17.30;63.40;;;;;;5032302;28;20037;-39
2023/03/02 10:21:39;;;;;;;25.95;19.33;;;16.80;63.80;;;;;;5032233;28;20108;-43
2023/03/02 10:24:11;;;;;;;26.13;18.85;;;17.40;61.70;;;;;;5018837;28;20018;-41
2023/03/02 10:26:40;;;;;;;26.63;18.67;;;18.30;62.40;;;;;;5029999;28;20079;-40
2023/03/02 10:29:15;;;;;;;22.88;18.17;;;19.10;61.20;;;;;;5031458;28;20465;-39
2023/03/02 10:31:42;;;;;;;25.92;19.48;;;20.90;58.40;;;;;;5031148;28;20048;-43
2023/03/02 10:34:10;;;;;;;23.52;19.30;;;21.10;54.90;;;;;;5031254;28;20117;-47
2023/03/02 10:36:42;;;;;;;26.10;20.05;;;20.00;51.70;;;;;;5031649;28;20504;-38
2023/03/02 10:39:15;;;;;;;23.48;19.60;;;19.90;57.10;;;;;;5031602;28;20037;-42
2023/03/02 10:41:53;;;;;;;26.27;19.35;;;19.40;53.80;;;;;;5031691;28;20075;-39
2023/03/02 10:44:27;;;;;;;25.70;20.13;;;18.70;55.00;;;;;;5031588;28;20117;-37
2023/03/02 10:46:53;;;;;;;24.52;19.23;;;18.90;54.80;;;;;;5030604;28;20116;-41
2023/03/02 10:49:29;;;;;;;28.00;19.05;;;19.20;55.20;;;;;;5031681;28;20021;-51
2023/03/02 10:52:08;;;;;;;25.90;18.92;;;19.10;54.10;;;;;;5031710;28;20021;-41
2023/03/02 10:54:35;;;;;;;24.02;17.85;;;19.30;55.10;;;;;;5046493;28;20021;-39
2023/03/02 10:57:04;;;;;;;24.88;18.13;;;18.70;55.10;;;;;;5050439;28;20045;-38
2023/03/02 10:59:43;;;;;;;24.88;18.52;;;19.80;54.20;;;;;;5044458;28;20487;-46
2023/03/02 11:02:22;;;;;;;25.13;18.67;;;19.00;54.10;;;;;;5051334;28;20040;-44
2023/03/02 11:04:53;;;;;;;24.52;18.38;;;18.50;54.20;;;;;;5051451;28;20067;-42
2023/03/02 11:07:22;;;;;;;24.73;17.88;;;18.40;55.80;;;;;;5051554;28;20033;-43
2023/03/02 11:10:01;;;;;;;;;;;18.50;54.00;;;;;;5051830;28;20025;-38
2023/03/02 11:12:28;;;;;;;23.75;17.55;;;19.60;57.50;;;;;;5050046;28;20303;-46
2023/03/02 11:15:15;;;;;;;25.02;17.45;;;19.00;54.40;;;;;;5051285;28;20404;-37
2023/03/02 11:17:43;;;;;;;26.45;17.95;;;19.10;53.50;;;;;;5051417;28;20104;-44
2023/03/02 11:20:20;;;;;;;23.50;17.40;;;19.90;54.50;;;;;;5049575;28;20034;-37
2023/03/02 11:22:59;;;;;;;27.85;17.80;;;20.10;53.60;;;;;;5040881;28;20047;-50
2023/03/02 11:25:30;;;;;;;22.13;17.98;;;21.20;50.80;;;;;;5051361;28;20083;-52
2023/03/02 11:28:08;;;;;;;26.73;17.42;;;19.90;52.00;;;;;;5051248;28;20461;-39
2023/03/02 11:30:40;;;;;;;26.58;18.00;;;20.50;50.40;;;;;;5051081;28;20028;-37
2023/03/02 11:33:16;;;;;;;23.25;16.85;;;20.30;50.10;;;;;;5051065;28;20013;-38
2023/03/02 11:35:56;;;;;;;24.20;17.77;;;20.80;51.90;;;;;;5050745;28;20372;-43
2023/03/02 11:38:27;;;;;;;24.92;18.80;;;20.20;54.00;;;;;;5050826;28;20029;-41
2023/03/02 11:41:04;;;;;;;23.58;17.63;;;20.00;50.70;;;;;;5050878;28;20086;-40
2023/03/02 11:43:30;;;;;;;25.50;18.20;;;20.70;51.50;;;;;;5050714;28;20021;-42
2023/03/02 11:46:02;;;;;;;23.90;16.92;;;19.70;50.00;;;;;;5050728;28;20384;-40
2023/03/02 11:48:35;;;;;;;23.52;16.50;;;19.30;51.10;;;;;;5050877;28;20515;-43
2023/03/02 11:51:05;;;;;;;23.15;15.70;;;19.60;51.50;;;;;;5044362;28;20017;-41
2023/03/02 11:53:49;;;;;;;20.90;16.50;;;19.20;52.00;;;;;;5047033;28;20041;-41
2023/03/02 11:56:16;;;;;;;24.42;16.90;;;19.60;53.50;;;;;;5050411;28;20025;-42
2023/03/02 11:58:42;;;;;;;25.05;16.45;;;20.20;51.80;;;;;;5050760;28;20464;-37
2023/03/02 12:01:16;;;;;;;21.52;16.05;;;19.60;51.20;;;;;;5050386;28;20400;-39
2023/03/02 12:03:44;;;;;;;20.10;15.00;;;19.60;49.50;;;;;;5050574;28;20029;-42
2023/03/02 12:06:23;;;;;;;21.65;15.82;;;20.60;51.00;;;;;;5049392;28;20497;-37
2023/03/02 12:08:53;;;;;;;22.95;16.55;;;20.20;50.20;;;;;;5050461;28;20028;-37
2023/03/02 12:11:18;;;;;;;;;;;19.40;50.00;;;;;;5051324;28;20492;-39
2023/03/02 12:13:48;;;;;;;25.88;16.88;;;19.70;50.50;;;;;;5050492;28;20011;-42
2023/03/02 12:16:34;;;;;;;21.88;16.02;;;18.80;52.90;;;;;;5050411;28;20025;-38
2023/03/02 12:19:16;;;;;;;23.25;14.93;;;19.80;51.60;;;;;;5050471;28;20040;-44
2023/03/02 12:21:56;;;;;;;26.33;15.20;;;20.70;48.90;;;;;;5049526;28;20021;-50
2023/03/02 12:24:29;;;;;;;17.77;13.85;;;20.40;49.30;;;;;;5050653;28;20108;-40
2023/03/02 12:27:03;;;;;;;19.33;14.13;;;19.30;49.70;;;;;;5042492;28;20056;-39
2023/03/02 12:29:44;;;;;;;20.67;13.93;;;19.50;52.60;;;;;;5034838;28;20021;-47
2023/03/02 12:32:22;;;;;;;17.30;13.73;;;20.40;50.50;;;;;;5039899;28;20028;-39
2023/03/02 12:34:55;;;;;;;18.02;13.00;;;20.70;48.70;;;;;;5033671;28;20025;-39
2023/03/02 12:37:47;;;;;;;15.48;11.95;;;20.30;48.90;;;;;;5034644;28;20026;-47
2023/03/02 12:40:24;;;;;;;16.90;12.82;;;20.80;47.90;;;;;;5049542;28;20112;-40
2023/03/02 12:43:23;;;;;;;19.20;13.07;;;20.70;47.40;;;;;;5038588;28;20140;-41
2023/03/02 12:46:25;;;;;;;18.45;13.13;;;20.40;48.70;;;;;;5034894;28;20025;-38